sensor_id;sensor_type;location;lat;lon;timestamp;P1;P2;P0
47810;PMS5003;33575;52.600;7.318;2024-03-22T00:00:43;61;55;
47810;PMS5003;33575;52.600;7.318;2024-03-22T00:03:14;69;54;
47810;PMS5003;33575;52.600;7.318;2024-03-22T00:05:44;67;55;
47810;PMS5003;33575;52.600;7.318;2024-03-22T00:08:15;69;59;
47810;PMS5003;33575;52.600;7.318;2024-03-22T00:10:45;63;56;
47810;PMS5003;33575;52.600;7.318;2024-03-22T00:13:16;66;56;
47810;PMS5003;33575;52.600;7.318;2024-03-22T00:15:46;59;51;
47810;PMS5003;33575;52.600;7.318;2024-03-22T00:18:16;71;56;
47810;PMS5003;33575;52.600;7.318;2024-03-22T00:20:46;66;59;
47810;PMS5003;33575;52.600;7.318;2024-03-22T00:23:17;77;56;
47810;PMS5003;33575;52.600;7.318;2024-03-22T00:25:47;69;58;
47810;PMS5003;33575;52.600;7.318;2024-03-22T00:28:17;63;56;
47810;PMS5003;33575;52.600;7.318;2024-03-22T00:30:48;59;48;
47810;PMS5003;33575;52.600;7.318;2024-03-22T00:33:18;66;57;
47810;PMS5003;33575;52.600;7.318;2024-03-22T00:35:48;69;55;
47810;PMS5003;33575;52.600;7.318;2024-03-22T00:38:19;65;51;
47810;PMS5003;33575;52.600;7.318;2024-03-22T00:40:49;67;56;
47810;PMS5003;33575;52.600;7.318;2024-03-22T00:43:19;58;51;
47810;PMS5003;33575;52.600;7.318;2024-03-22T00:45:50;61;49;
47810;PMS5003;33575;52.600;7.318;2024-03-22T00:48:20;63;50;
47810;PMS5003;33575;52.600;7.318;2024-03-22T00:50:51;72;58;
47810;PMS5003;33575;52.600;7.318;2024-03-22T00:53:21;62;50;
47810;PMS5003;33575;52.600;7.318;2024-03-22T00:55:53;62;51;
47810;PMS5003;33575;52.600;7.318;2024-03-22T00:58:22;66;50;
47810;PMS5003;33575;52.600;7.318;2024-03-22T01:00:53;67;53;
47810;PMS5003;33575;52.600;7.318;2024-03-22T01:03:24;67;52;
47810;PMS5003;33575;52.600;7.318;2024-03-22T01:05:54;65;55;
47810;PMS5003;33575;52.600;7.318;2024-03-22T01:08:24;71;62;
47810;PMS5003;33575;52.600;7.318;2024-03-22T01:10:55;69;54;
47810;PMS5003;33575;52.600;7.318;2024-03-22T01:13:26;66;53;
47810;PMS5003;33575;52.600;7.318;2024-03-22T01:15:56;68;57;
47810;PMS5003;33575;52.600;7.318;2024-03-22T01:18:27;63;49;
47810;PMS5003;33575;52.600;7.318;2024-03-22T01:20:57;62;51;
47810;PMS5003;33575;52.600;7.318;2024-03-22T01:23:27;65;53;
47810;PMS5003;33575;52.600;7.318;2024-03-22T01:25:58;56;53;
47810;PMS5003;33575;52.600;7.318;2024-03-22T01:28:28;63;55;
47810;PMS5003;33575;52.600;7.318;2024-03-22T01:30:58;65;53;
47810;PMS5003;33575;52.600;7.318;2024-03-22T01:33:28;67;54;
47810;PMS5003;33575;52.600;7.318;2024-03-22T01:35:58;65;54;
47810;PMS5003;33575;52.600;7.318;2024-03-22T01:38:28;55;50;
47810;PMS5003;33575;52.600;7.318;2024-03-22T01:40:59;66;53;
47810;PMS5003;33575;52.600;7.318;2024-03-22T01:43:29;71;59;
47810;PMS5003;33575;52.600;7.318;2024-03-22T01:46:00;69;55;
47810;PMS5003;33575;52.600;7.318;2024-03-22T01:48:31;48;48;
47810;PMS5003;33575;52.600;7.318;2024-03-22T01:51:01;67;55;
47810;PMS5003;33575;52.600;7.318;2024-03-22T01:53:32;67;57;
47810;PMS5003;33575;52.600;7.318;2024-03-22T01:56:03;68;55;
47810;PMS5003;33575;52.600;7.318;2024-03-22T01:58:33;71;58;
47810;PMS5003;33575;52.600;7.318;2024-03-22T02:01:04;57;53;
47810;PMS5003;33575;52.600;7.318;2024-03-22T02:03:34;62;55;
47810;PMS5003;33575;52.600;7.318;2024-03-22T02:06:05;57;51;
47810;PMS5003;33575;52.600;7.318;2024-03-22T02:08:35;56;48;
47810;PMS5003;33575;52.600;7.318;2024-03-22T02:11:06;80;59;
47810;PMS5003;33575;52.600;7.318;2024-03-22T02:13:37;82;69;
47810;PMS5003;33575;52.600;7.318;2024-03-22T02:16:07;71;60;
47810;PMS5003;33575;52.600;7.318;2024-03-22T02:18:37;68;59;
47810;PMS5003;33575;52.600;7.318;2024-03-22T02:21:07;60;55;
47810;PMS5003;33575;52.600;7.318;2024-03-22T02:23:39;67;58;
47810;PMS5003;33575;52.600;7.318;2024-03-22T02:26:09;62;49;
47810;PMS5003;33575;52.600;7.318;2024-03-22T02:28:39;64;55;
47810;PMS5003;33575;52.600;7.318;2024-03-22T02:31:10;64;60;
47810;PMS5003;33575;52.600;7.318;2024-03-22T02:33:40;74;60;
47810;PMS5003;33575;52.600;7.318;2024-03-22T02:36:10;74;62;
47810;PMS5003;33575;52.600;7.318;2024-03-22T02:38:40;66;51;
47810;PMS5003;33575;52.600;7.318;2024-03-22T02:41:10;61;54;
47810;PMS5003;33575;52.600;7.318;2024-03-22T02:43:41;67;54;
47810;PMS5003;33575;52.600;7.318;2024-03-22T02:46:11;73;59;
47810;PMS5003;33575;52.600;7.318;2024-03-22T02:48:42;63;59;
47810;PMS5003;33575;52.600;7.318;2024-03-22T02:51:12;64;57;
47810;PMS5003;33575;52.600;7.318;2024-03-22T02:53:43;67;55;
47810;PMS5003;33575;52.600;7.318;2024-03-22T02:56:14;58;54;
47810;PMS5003;33575;52.600;7.318;2024-03-22T02:58:44;60;52;
47810;PMS5003;33575;52.600;7.318;2024-03-22T03:01:15;50;46;
47810;PMS5003;33575;52.600;7.318;2024-03-22T03:03:45;65;59;
47810;PMS5003;33575;52.600;7.318;2024-03-22T03:06:16;66;54;
47810;PMS5003;33575;52.600;7.318;2024-03-22T03:08:46;70;58;
47810;PMS5003;33575;52.600;7.318;2024-03-22T03:11:17;63;55;
47810;PMS5003;33575;52.600;7.318;2024-03-22T03:13:47;62;53;
47810;PMS5003;33575;52.600;7.318;2024-03-22T03:16:18;68;64;
47810;PMS5003;33575;52.600;7.318;2024-03-22T03:18:49;67;59;
47810;PMS5003;33575;52.600;7.318;2024-03-22T03:21:19;67;55;
47810;PMS5003;33575;52.600;7.318;2024-03-22T03:23:50;76;57;
47810;PMS5003;33575;52.600;7.318;2024-03-22T03:26:21;63;55;
47810;PMS5003;33575;52.600;7.318;2024-03-22T03:28:51;57;49;
47810;PMS5003;33575;52.600;7.318;2024-03-22T03:31:21;69;55;
47810;PMS5003;33575;52.600;7.318;2024-03-22T03:33:51;72;59;
47810;PMS5003;33575;52.600;7.318;2024-03-22T03:36:21;70;61;
47810;PMS5003;33575;52.600;7.318;2024-03-22T03:38:52;59;50;
47810;PMS5003;33575;52.600;7.318;2024-03-22T03:41:22;68;56;
47810;PMS5003;33575;52.600;7.318;2024-03-22T03:43:52;76;64;
47810;PMS5003;33575;52.600;7.318;2024-03-22T03:46:23;75;60;
47810;PMS5003;33575;52.600;7.318;2024-03-22T03:48:53;68;56;
47810;PMS5003;33575;52.600;7.318;2024-03-22T03:51:24;85;77;
47810;PMS5003;33575;52.600;7.318;2024-03-22T03:53:55;74;55;
47810;PMS5003;33575;52.600;7.318;2024-03-22T03:56:25;69;51;
47810;PMS5003;33575;52.600;7.318;2024-03-22T03:58:56;72;56;
47810;PMS5003;33575;52.600;7.318;2024-03-22T04:01:26;58;51;
47810;PMS5003;33575;52.600;7.318;2024-03-22T04:03:57;61;53;
47810;PMS5003;33575;52.600;7.318;2024-03-22T04:06:27;63;58;
47810;PMS5003;33575;52.600;7.318;2024-03-22T04:08:58;70;61;
47810;PMS5003;33575;52.600;7.318;2024-03-22T04:11:29;62;53;
47810;PMS5003;33575;52.600;7.318;2024-03-22T04:13:59;72;60;
47810;PMS5003;33575;52.600;7.318;2024-03-22T04:16:29;71;65;
47810;PMS5003;33575;52.600;7.318;2024-03-22T04:19:00;69;55;
47810;PMS5003;33575;52.600;7.318;2024-03-22T04:21:30;68;60;
47810;PMS5003;33575;52.600;7.318;2024-03-22T04:24:01;69;54;
47810;PMS5003;33575;52.600;7.318;2024-03-22T04:26:32;65;57;
47810;PMS5003;33575;52.600;7.318;2024-03-22T04:29:02;67;58;
47810;PMS5003;33575;52.600;7.318;2024-03-22T04:31:32;74;53;
47810;PMS5003;33575;52.600;7.318;2024-03-22T04:34:03;72;58;
47810;PMS5003;33575;52.600;7.318;2024-03-22T04:36:33;68;57;
47810;PMS5003;33575;52.600;7.318;2024-03-22T04:39:03;68;56;
47810;PMS5003;33575;52.600;7.318;2024-03-22T04:41:34;80;64;
47810;PMS5003;33575;52.600;7.318;2024-03-22T04:44:04;73;59;
47810;PMS5003;33575;52.600;7.318;2024-03-22T04:46:35;75;61;
47810;PMS5003;33575;52.600;7.318;2024-03-22T04:49:05;75;58;
47810;PMS5003;33575;52.600;7.318;2024-03-22T04:51:35;87;72;
47810;PMS5003;33575;52.600;7.318;2024-03-22T04:54:06;66;53;
47810;PMS5003;33575;52.600;7.318;2024-03-22T04:56:36;61;56;
47810;PMS5003;33575;52.600;7.318;2024-03-22T04:59:06;69;58;
47810;PMS5003;33575;52.600;7.318;2024-03-22T05:01:37;76;59;
47810;PMS5003;33575;52.600;7.318;2024-03-22T05:04:07;81;61;
47810;PMS5003;33575;52.600;7.318;2024-03-22T05:06:38;67;57;
47810;PMS5003;33575;52.600;7.318;2024-03-22T05:09:08;66;58;
47810;PMS5003;33575;52.600;7.318;2024-03-22T05:11:38;69;56;
47810;PMS5003;33575;52.600;7.318;2024-03-22T05:14:09;84;71;
47810;PMS5003;33575;52.600;7.318;2024-03-22T05:16:39;71;58;
47810;PMS5003;33575;52.600;7.318;2024-03-22T05:19:10;67;60;
47810;PMS5003;33575;52.600;7.318;2024-03-22T05:21:40;79;69;
47810;PMS5003;33575;52.600;7.318;2024-03-22T05:24:11;75;60;
47810;PMS5003;33575;52.600;7.318;2024-03-22T05:26:42;79;58;
47810;PMS5003;33575;52.600;7.318;2024-03-22T05:29:12;76;65;
47810;PMS5003;33575;52.600;7.318;2024-03-22T05:31:45;81;71;
47810;PMS5003;33575;52.600;7.318;2024-03-22T05:34:13;78;61;
47810;PMS5003;33575;52.600;7.318;2024-03-22T05:36:45;72;60;
47810;PMS5003;33575;52.600;7.318;2024-03-22T05:39:15;80;61;
47810;PMS5003;33575;52.600;7.318;2024-03-22T05:41:45;69;61;
47810;PMS5003;33575;52.600;7.318;2024-03-22T05:44:16;73;61;
47810;PMS5003;33575;52.600;7.318;2024-03-22T05:46:47;71;65;
47810;PMS5003;33575;52.600;7.318;2024-03-22T05:49:17;73;65;
47810;PMS5003;33575;52.600;7.318;2024-03-22T05:51:48;72;66;
47810;PMS5003;33575;52.600;7.318;2024-03-22T05:54:18;91;75;
47810;PMS5003;33575;52.600;7.318;2024-03-22T05:56:49;78;61;
47810;PMS5003;33575;52.600;7.318;2024-03-22T05:59:20;80;58;
47810;PMS5003;33575;52.600;7.318;2024-03-22T06:01:51;83;69;
47810;PMS5003;33575;52.600;7.318;2024-03-22T06:04:21;75;61;
47810;PMS5003;33575;52.600;7.318;2024-03-22T06:06:51;70;62;
47810;PMS5003;33575;52.600;7.318;2024-03-22T06:09:22;72;61;
47810;PMS5003;33575;52.600;7.318;2024-03-22T06:11:52;88;72;
47810;PMS5003;33575;52.600;7.318;2024-03-22T06:14:22;75;63;
47810;PMS5003;33575;52.600;7.318;2024-03-22T06:16:52;74;64;
47810;PMS5003;33575;52.600;7.318;2024-03-22T06:19:23;78;60;
47810;PMS5003;33575;52.600;7.318;2024-03-22T06:21:54;72;62;
47810;PMS5003;33575;52.600;7.318;2024-03-22T06:24:24;75;64;
47810;PMS5003;33575;52.600;7.318;2024-03-22T06:26:55;82;63;
47810;PMS5003;33575;52.600;7.318;2024-03-22T06:29:25;75;64;
47810;PMS5003;33575;52.600;7.318;2024-03-22T06:31:56;76;67;
47810;PMS5003;33575;52.600;7.318;2024-03-22T06:34:26;85;67;
47810;PMS5003;33575;52.600;7.318;2024-03-22T06:36:56;71;63;
47810;PMS5003;33575;52.600;7.318;2024-03-22T06:39:27;79;63;
47810;PMS5003;33575;52.600;7.318;2024-03-22T06:41:57;74;68;
47810;PMS5003;33575;52.600;7.318;2024-03-22T06:44:28;81;71;
47810;PMS5003;33575;52.600;7.318;2024-03-22T06:46:59;74;60;
47810;PMS5003;33575;52.600;7.318;2024-03-22T06:49:29;82;67;
47810;PMS5003;33575;52.600;7.318;2024-03-22T06:51:59;71;58;
47810;PMS5003;33575;52.600;7.318;2024-03-22T06:54:30;71;64;
47810;PMS5003;33575;52.600;7.318;2024-03-22T06:57:00;83;66;
47810;PMS5003;33575;52.600;7.318;2024-03-22T06:59:31;77;64;
47810;PMS5003;33575;52.600;7.318;2024-03-22T07:02:03;81;73;
47810;PMS5003;33575;52.600;7.318;2024-03-22T07:04:32;72;63;
47810;PMS5003;33575;52.600;7.318;2024-03-22T07:07:03;74;61;
47810;PMS5003;33575;52.600;7.318;2024-03-22T07:09:33;78;65;
47810;PMS5003;33575;52.600;7.318;2024-03-22T07:12:04;75;59;
47810;PMS5003;33575;52.600;7.318;2024-03-22T07:14:34;72;57;
47810;PMS5003;33575;52.600;7.318;2024-03-22T07:17:05;69;59;
47810;PMS5003;33575;52.600;7.318;2024-03-22T07:19:35;69;64;
47810;PMS5003;33575;52.600;7.318;2024-03-22T07:22:06;85;80;
47810;PMS5003;33575;52.600;7.318;2024-03-22T07:24:36;74;60;
47810;PMS5003;33575;52.600;7.318;2024-03-22T07:27:07;68;60;
47810;PMS5003;33575;52.600;7.318;2024-03-22T07:29:38;70;58;
47810;PMS5003;33575;52.600;7.318;2024-03-22T07:32:08;66;53;
47810;PMS5003;33575;52.600;7.318;2024-03-22T07:34:38;82;66;
47810;PMS5003;33575;52.600;7.318;2024-03-22T07:37:13;81;63;
47810;PMS5003;33575;52.600;7.318;2024-03-22T07:39:39;72;62;
47810;PMS5003;33575;52.600;7.318;2024-03-22T07:42:10;73;59;
47810;PMS5003;33575;52.600;7.318;2024-03-22T07:44:40;70;60;
47810;PMS5003;33575;52.600;7.318;2024-03-22T07:47:11;77;64;
47810;PMS5003;33575;52.600;7.318;2024-03-22T07:49:41;64;51;
47810;PMS5003;33575;52.600;7.318;2024-03-22T07:52:11;74;64;
47810;PMS5003;33575;52.600;7.318;2024-03-22T07:54:42;66;54;
47810;PMS5003;33575;52.600;7.318;2024-03-22T07:57:13;59;48;
47810;PMS5003;33575;52.600;7.318;2024-03-22T07:59:43;55;47;
47810;PMS5003;33575;52.600;7.318;2024-03-22T08:02:14;59;47;
47810;PMS5003;33575;52.600;7.318;2024-03-22T08:04:44;65;55;
47810;PMS5003;33575;52.600;7.318;2024-03-22T08:07:15;74;67;
47810;PMS5003;33575;52.600;7.318;2024-03-22T08:09:46;70;52;
47810;PMS5003;33575;52.600;7.318;2024-03-22T08:12:16;63;52;
47810;PMS5003;33575;52.600;7.318;2024-03-22T08:14:47;61;51;
47810;PMS5003;33575;52.600;7.318;2024-03-22T08:17:17;64;52;
47810;PMS5003;33575;52.600;7.318;2024-03-22T08:19:47;62;53;
47810;PMS5003;33575;52.600;7.318;2024-03-22T08:22:18;59;48;
47810;PMS5003;33575;52.600;7.318;2024-03-22T08:24:48;73;64;
47810;PMS5003;33575;52.600;7.318;2024-03-22T08:27:19;68;52;
47810;PMS5003;33575;52.600;7.318;2024-03-22T08:29:50;65;56;
47810;PMS5003;33575;52.600;7.318;2024-03-22T08:32:20;64;53;
47810;PMS5003;33575;52.600;7.318;2024-03-22T08:34:50;64;51;
47810;PMS5003;33575;52.600;7.318;2024-03-22T08:37:21;63;49;
47810;PMS5003;33575;52.600;7.318;2024-03-22T08:39:51;62;51;
47810;PMS5003;33575;52.600;7.318;2024-03-22T08:42:22;56;44;
47810;PMS5003;33575;52.600;7.318;2024-03-22T08:44:52;68;61;
47810;PMS5003;33575;52.600;7.318;2024-03-22T08:47:23;65;54;
47810;PMS5003;33575;52.600;7.318;2024-03-22T08:49:53;58;48;
47810;PMS5003;33575;52.600;7.318;2024-03-22T08:52:24;57;48;
47810;PMS5003;33575;52.600;7.318;2024-03-22T08:54:54;66;58;
47810;PMS5003;33575;52.600;7.318;2024-03-22T08:57:24;66;55;
47810;PMS5003;33575;52.600;7.318;2024-03-22T08:59:55;65;51;
47810;PMS5003;33575;52.600;7.318;2024-03-22T09:02:25;63;56;
47810;PMS5003;33575;52.600;7.318;2024-03-22T09:04:55;61;49;
47810;PMS5003;33575;52.600;7.318;2024-03-22T09:07:26;59;51;
47810;PMS5003;33575;52.600;7.318;2024-03-22T09:09:56;60;48;
47810;PMS5003;33575;52.600;7.318;2024-03-22T09:12:27;58;46;
47810;PMS5003;33575;52.600;7.318;2024-03-22T09:14:57;61;52;
47810;PMS5003;33575;52.600;7.318;2024-03-22T09:17:27;58;45;
47810;PMS5003;33575;52.600;7.318;2024-03-22T09:19:58;81;66;
47810;PMS5003;33575;52.600;7.318;2024-03-22T09:22:28;70;57;
47810;PMS5003;33575;52.600;7.318;2024-03-22T09:24:58;48;43;
47810;PMS5003;33575;52.600;7.318;2024-03-22T09:27:29;65;52;
47810;PMS5003;33575;52.600;7.318;2024-03-22T09:29:59;69;51;
47810;PMS5003;33575;52.600;7.318;2024-03-22T09:32:30;59;49;
47810;PMS5003;33575;52.600;7.318;2024-03-22T09:35:00;53;44;
47810;PMS5003;33575;52.600;7.318;2024-03-22T09:37:31;64;50;
47810;PMS5003;33575;52.600;7.318;2024-03-22T09:40:01;63;53;
47810;PMS5003;33575;52.600;7.318;2024-03-22T09:42:32;59;48;
47810;PMS5003;33575;52.600;7.318;2024-03-22T09:45:03;63;50;
47810;PMS5003;33575;52.600;7.318;2024-03-22T09:47:32;63;54;
47810;PMS5003;33575;52.600;7.318;2024-03-22T09:50:03;59;45;
47810;PMS5003;33575;52.600;7.318;2024-03-22T09:52:33;61;52;
47810;PMS5003;33575;52.600;7.318;2024-03-22T09:55:04;68;54;
47810;PMS5003;33575;52.600;7.318;2024-03-22T09:57:34;60;49;
47810;PMS5003;33575;52.600;7.318;2024-03-22T10:00:05;87;72;
47810;PMS5003;33575;52.600;7.318;2024-03-22T10:02:34;62;51;
47810;PMS5003;33575;52.600;7.318;2024-03-22T10:05:05;63;52;
47810;PMS5003;33575;52.600;7.318;2024-03-22T10:07:36;66;58;
47810;PMS5003;33575;52.600;7.318;2024-03-22T10:10:06;56;42;
47810;PMS5003;33575;52.600;7.318;2024-03-22T10:12:36;58;47;
47810;PMS5003;33575;52.600;7.318;2024-03-22T10:15:06;60;48;
47810;PMS5003;33575;52.600;7.318;2024-03-22T10:17:37;62;53;
47810;PMS5003;33575;52.600;7.318;2024-03-22T10:20:08;67;56;
47810;PMS5003;33575;52.600;7.318;2024-03-22T10:22:38;63;52;
47810;PMS5003;33575;52.600;7.318;2024-03-22T10:25:08;75;62;
47810;PMS5003;33575;52.600;7.318;2024-03-22T10:27:38;75;64;
47810;PMS5003;33575;52.600;7.318;2024-03-22T10:30:09;71;57;
47810;PMS5003;33575;52.600;7.318;2024-03-22T10:32:38;65;57;
47810;PMS5003;33575;52.600;7.318;2024-03-22T10:35:11;61;50;
47810;PMS5003;33575;52.600;7.318;2024-03-22T10:37:39;60;47;
47810;PMS5003;33575;52.600;7.318;2024-03-22T10:40:10;58;49;
47810;PMS5003;33575;52.600;7.318;2024-03-22T10:42:41;66;53;
47810;PMS5003;33575;52.600;7.318;2024-03-22T10:45:12;55;46;
47810;PMS5003;33575;52.600;7.318;2024-03-22T10:47:42;59;48;
47810;PMS5003;33575;52.600;7.318;2024-03-22T10:50:12;52;40;
47810;PMS5003;33575;52.600;7.318;2024-03-22T10:52:45;44;36;
47810;PMS5003;33575;52.600;7.318;2024-03-22T10:55:13;56;50;
47810;PMS5003;33575;52.600;7.318;2024-03-22T10:57:43;51;41;
47810;PMS5003;33575;52.600;7.318;2024-03-22T11:00:14;51;47;
47810;PMS5003;33575;52.600;7.318;2024-03-22T11:02:44;64;56;
47810;PMS5003;33575;52.600;7.318;2024-03-22T11:05:16;66;55;
47810;PMS5003;33575;52.600;7.318;2024-03-22T11:07:45;48;43;
47810;PMS5003;33575;52.600;7.318;2024-03-22T11:10:16;44;39;
47810;PMS5003;33575;52.600;7.318;2024-03-22T11:12:45;54;44;
47810;PMS5003;33575;52.600;7.318;2024-03-22T11:15:15;94;88;
47810;PMS5003;33575;52.600;7.318;2024-03-22T11:17:46;104;92;
47810;PMS5003;33575;52.600;7.318;2024-03-22T11:20:17;96;89;
47810;PMS5003;33575;52.600;7.318;2024-03-22T11:22:47;50;44;
47810;PMS5003;33575;52.600;7.318;2024-03-22T11:25:17;61;57;
47810;PMS5003;33575;52.600;7.318;2024-03-22T11:27:48;47;42;
47810;PMS5003;33575;52.600;7.318;2024-03-22T11:30:18;99;92;
47810;PMS5003;33575;52.600;7.318;2024-03-22T11:32:49;86;79;
47810;PMS5003;33575;52.600;7.318;2024-03-22T11:35:20;88;82;
47810;PMS5003;33575;52.600;7.318;2024-03-22T11:37:50;99;92;
47810;PMS5003;33575;52.600;7.318;2024-03-22T11:40:21;82;78;
47810;PMS5003;33575;52.600;7.318;2024-03-22T11:42:51;78;71;
47810;PMS5003;33575;52.600;7.318;2024-03-22T11:45:24;92;89;
47810;PMS5003;33575;52.600;7.318;2024-03-22T11:47:53;96;90;
47810;PMS5003;33575;52.600;7.318;2024-03-22T11:50:23;62;56;
47810;PMS5003;33575;52.600;7.318;2024-03-22T11:52:53;34;28;
47810;PMS5003;33575;52.600;7.318;2024-03-22T11:55:26;71;64;
47810;PMS5003;33575;52.600;7.318;2024-03-22T11:57:56;45;35;
47810;PMS5003;33575;52.600;7.318;2024-03-22T12:00:29;18;16;
47810;PMS5003;33575;52.600;7.318;2024-03-22T12:02:55;26;19;
47810;PMS5003;33575;52.600;7.318;2024-03-22T12:05:25;15;14;
47810;PMS5003;33575;52.600;7.318;2024-03-22T12:07:56;17;16;
47810;PMS5003;33575;52.600;7.318;2024-03-22T12:10:26;18;17;
47810;PMS5003;33575;52.600;7.318;2024-03-22T12:12:57;23;14;
47810;PMS5003;33575;52.600;7.318;2024-03-22T12:15:28;16;15;
47810;PMS5003;33575;52.600;7.318;2024-03-22T12:17:57;17;16;
47810;PMS5003;33575;52.600;7.318;2024-03-22T12:20:28;21;14;
47810;PMS5003;33575;52.600;7.318;2024-03-22T12:22:58;13;13;
47810;PMS5003;33575;52.600;7.318;2024-03-22T12:25:28;15;14;
47810;PMS5003;33575;52.600;7.318;2024-03-22T12:27:58;14;14;
47810;PMS5003;33575;52.600;7.318;2024-03-22T12:30:29;14;14;
47810;PMS5003;33575;52.600;7.318;2024-03-22T12:32:59;13;13;
47810;PMS5003;33575;52.600;7.318;2024-03-22T12:35:30;16;15;
47810;PMS5003;33575;52.600;7.318;2024-03-22T12:38:00;16;15;
47810;PMS5003;33575;52.600;7.318;2024-03-22T12:40:31;16;15;
47810;PMS5003;33575;52.600;7.318;2024-03-22T12:43:01;15;15;
47810;PMS5003;33575;52.600;7.318;2024-03-22T12:45:32;15;13;
47810;PMS5003;33575;52.600;7.318;2024-03-22T12:48:03;12;11;
47810;PMS5003;33575;52.600;7.318;2024-03-22T12:50:33;14;13;
47810;PMS5003;33575;52.600;7.318;2024-03-22T12:53:03;14;14;
47810;PMS5003;33575;52.600;7.318;2024-03-22T12:55:34;14;12;
47810;PMS5003;33575;52.600;7.318;2024-03-22T12:58:04;13;11;
47810;PMS5003;33575;52.600;7.318;2024-03-22T13:00:35;13;12;
47810;PMS5003;33575;52.600;7.318;2024-03-22T13:03:05;13;12;
47810;PMS5003;33575;52.600;7.318;2024-03-22T13:05:35;11;10;
47810;PMS5003;33575;52.600;7.318;2024-03-22T13:08:06;12;11;
47810;PMS5003;33575;52.600;7.318;2024-03-22T13:10:36;11;11;
47810;PMS5003;33575;52.600;7.318;2024-03-22T13:13:07;14;12;
47810;PMS5003;33575;52.600;7.318;2024-03-22T13:15:37;10;9;
47810;PMS5003;33575;52.600;7.318;2024-03-22T13:18:07;12;12;
47810;PMS5003;33575;52.600;7.318;2024-03-22T13:20:37;16;15;
47810;PMS5003;33575;52.600;7.318;2024-03-22T13:23:08;13;13;
47810;PMS5003;33575;52.600;7.318;2024-03-22T13:25:38;13;13;
47810;PMS5003;33575;52.600;7.318;2024-03-22T13:28:09;9;9;
47810;PMS5003;33575;52.600;7.318;2024-03-22T13:30:39;11;11;
47810;PMS5003;33575;52.600;7.318;2024-03-22T13:33:10;12;11;
47810;PMS5003;33575;52.600;7.318;2024-03-22T13:35:40;14;12;
47810;PMS5003;33575;52.600;7.318;2024-03-22T13:38:10;10;10;
47810;PMS5003;33575;52.600;7.318;2024-03-22T13:40:41;12;11;
47810;PMS5003;33575;52.600;7.318;2024-03-22T13:43:11;10;10;
47810;PMS5003;33575;52.600;7.318;2024-03-22T13:45:42;10;10;
47810;PMS5003;33575;52.600;7.318;2024-03-22T13:48:12;9;9;
47810;PMS5003;33575;52.600;7.318;2024-03-22T13:50:43;10;10;
47810;PMS5003;33575;52.600;7.318;2024-03-22T13:53:13;12;9;
47810;PMS5003;33575;52.600;7.318;2024-03-22T13:55:44;9;9;
47810;PMS5003;33575;52.600;7.318;2024-03-22T13:58:17;7;7;
47810;PMS5003;33575;52.600;7.318;2024-03-22T14:00:45;6;6;
47810;PMS5003;33575;52.600;7.318;2024-03-22T14:03:15;9;9;
47810;PMS5003;33575;52.600;7.318;2024-03-22T14:05:46;10;10;
47810;PMS5003;33575;52.600;7.318;2024-03-22T14:08:16;9;9;
47810;PMS5003;33575;52.600;7.318;2024-03-22T14:10:47;8;8;
47810;PMS5003;33575;52.600;7.318;2024-03-22T14:13:17;6;6;
47810;PMS5003;33575;52.600;7.318;2024-03-22T14:15:48;9;7;
47810;PMS5003;33575;52.600;7.318;2024-03-22T14:18:18;9;8;
47810;PMS5003;33575;52.600;7.318;2024-03-22T14:20:49;8;8;
47810;PMS5003;33575;52.600;7.318;2024-03-22T14:23:20;6;6;
47810;PMS5003;33575;52.600;7.318;2024-03-22T14:25:50;7;7;
47810;PMS5003;33575;52.600;7.318;2024-03-22T14:28:20;8;8;
47810;PMS5003;33575;52.600;7.318;2024-03-22T14:30:51;6;6;
47810;PMS5003;33575;52.600;7.318;2024-03-22T14:33:22;6;6;
47810;PMS5003;33575;52.600;7.318;2024-03-22T14:35:52;5;5;
47810;PMS5003;33575;52.600;7.318;2024-03-22T14:38:22;4;4;
47810;PMS5003;33575;52.600;7.318;2024-03-22T14:40:53;3;3;
47810;PMS5003;33575;52.600;7.318;2024-03-22T14:43:24;6;4;
47810;PMS5003;33575;52.600;7.318;2024-03-22T14:45:54;5;5;
47810;PMS5003;33575;52.600;7.318;2024-03-22T14:48:25;6;4;
47810;PMS5003;33575;52.600;7.318;2024-03-22T14:50:55;5;3;
47810;PMS5003;33575;52.600;7.318;2024-03-22T14:53:26;6;6;
47810;PMS5003;33575;52.600;7.318;2024-03-22T14:55:57;6;5;
47810;PMS5003;33575;52.600;7.318;2024-03-22T14:58:27;6;6;
47810;PMS5003;33575;52.600;7.318;2024-03-22T15:00:59;6;4;
47810;PMS5003;33575;52.600;7.318;2024-03-22T15:03:28;7;5;
47810;PMS5003;33575;52.600;7.318;2024-03-22T15:05:59;8;7;
47810;PMS5003;33575;52.600;7.318;2024-03-22T15:08:29;5;5;
47810;PMS5003;33575;52.600;7.318;2024-03-22T15:11:00;7;6;
47810;PMS5003;33575;52.600;7.318;2024-03-22T15:13:30;6;6;
47810;PMS5003;33575;52.600;7.318;2024-03-22T15:16:01;8;6;
47810;PMS5003;33575;52.600;7.318;2024-03-22T15:18:32;8;8;
47810;PMS5003;33575;52.600;7.318;2024-03-22T15:21:02;9;7;
47810;PMS5003;33575;52.600;7.318;2024-03-22T15:23:33;6;6;
47810;PMS5003;33575;52.600;7.318;2024-03-22T15:26:03;10;8;
47810;PMS5003;33575;52.600;7.318;2024-03-22T15:28:34;6;6;
47810;PMS5003;33575;52.600;7.318;2024-03-22T15:31:04;11;7;
47810;PMS5003;33575;52.600;7.318;2024-03-22T15:33:35;8;7;
47810;PMS5003;33575;52.600;7.318;2024-03-22T15:36:06;9;8;
47810;PMS5003;33575;52.600;7.318;2024-03-22T15:38:36;7;7;
47810;PMS5003;33575;52.600;7.318;2024-03-22T15:41:06;10;8;
47810;PMS5003;33575;52.600;7.318;2024-03-22T15:43:37;8;7;
47810;PMS5003;33575;52.600;7.318;2024-03-22T15:46:07;7;6;
47810;PMS5003;33575;52.600;7.318;2024-03-22T15:48:38;8;8;
47810;PMS5003;33575;52.600;7.318;2024-03-22T15:51:09;13;9;
47810;PMS5003;33575;52.600;7.318;2024-03-22T15:53:39;17;11;
47810;PMS5003;33575;52.600;7.318;2024-03-22T15:56:10;9;7;
47810;PMS5003;33575;52.600;7.318;2024-03-22T15:58:40;8;7;
47810;PMS5003;33575;52.600;7.318;2024-03-22T16:01:11;11;10;
47810;PMS5003;33575;52.600;7.318;2024-03-22T16:03:41;8;8;
47810;PMS5003;33575;52.600;7.318;2024-03-22T16:06:12;9;9;
47810;PMS5003;33575;52.600;7.318;2024-03-22T16:08:42;9;9;
47810;PMS5003;33575;52.600;7.318;2024-03-22T16:11:13;17;11;
47810;PMS5003;33575;52.600;7.318;2024-03-22T16:13:43;9;8;
47810;PMS5003;33575;52.600;7.318;2024-03-22T16:16:14;12;10;
47810;PMS5003;33575;52.600;7.318;2024-03-22T16:18:44;11;10;
47810;PMS5003;33575;52.600;7.318;2024-03-22T16:21:15;9;9;
47810;PMS5003;33575;52.600;7.318;2024-03-22T16:23:45;8;8;
47810;PMS5003;33575;52.600;7.318;2024-03-22T16:26:16;9;9;
47810;PMS5003;33575;52.600;7.318;2024-03-22T16:28:46;9;7;
47810;PMS5003;33575;52.600;7.318;2024-03-22T16:31:16;13;11;
47810;PMS5003;33575;52.600;7.318;2024-03-22T16:33:47;14;9;
47810;PMS5003;33575;52.600;7.318;2024-03-22T16:36:18;10;9;
47810;PMS5003;33575;52.600;7.318;2024-03-22T16:38:48;13;11;
47810;PMS5003;33575;52.600;7.318;2024-03-22T16:41:19;13;12;